Time;durP1;ratioP1;P1;durP2;ratioP2;P2;SDS_P1;SDS_P2;PMS_P1;PMS_P2;Temp;Humidity;BMP_temperature;BMP_pressure;BME280_temperature;BME280_humidity;BME280_pressure;Samples;Min_cycle;Max_cycle;Signal;HPM_P1;HPM_P2
2022/07/22 00:00:15;;;;;;;17.30;15.20;;;19.40;99.90;;;;;;5113347;28;20195;-60
2022/07/22 00:02:42;;;;;;;17.03;15.33;;;19.40;99.90;;;;;;5103788;28;20526;-59
2022/07/22 00:05:10;;;;;;;18.20;16.20;;;19.30;99.90;;;;;;5112175;28;20595;-60
2022/07/22 00:07:37;;;;;;;21.30;17.17;;;19.30;99.90;;;;;;5103271;28;20231;-60
2022/07/22 00:10:08;;;;;;;23.43;18.23;;;19.30;99.90;;;;;;5103916;28;20197;-60
2022/07/22 00:12:35;;;;;;;21.77;17.83;;;19.20;99.90;;;;;;5085674;28;20219;-60
2022/07/22 00:15:02;;;;;;;20.60;16.47;;;19.10;99.90;;;;;;5110526;28;20192;-60
2022/07/22 00:17:29;;;;;;;21.50;15.87;;;19.00;99.90;;;;;;5099108;28;20220;-60
2022/07/22 00:19:56;;;;;;;19.93;14.50;;;18.90;99.90;;;;;;5103825;28;20224;-60
2022/07/22 00:22:23;;;;;;;25.20;16.17;;;18.80;99.90;;;;;;5100567;28;20200;-60
2022/07/22 00:24:50;;;;;;;27.23;16.00;;;18.70;99.90;;;;;;5103082;28;20194;-60
2022/07/22 00:27:19;;;;;;;22.60;15.93;;;18.60;99.90;;;;;;5092749;28;20266;-60
2022/07/22 00:29:46;;;;;;;21.77;15.80;;;18.60;99.90;;;;;;5107191;28;20907;-60
2022/07/22 00:32:13;;;;;;;22.20;16.43;;;18.50;99.90;;;;;;5100782;28;20201;-60
2022/07/22 00:34:40;;;;;;;24.30;16.10;;;18.50;99.90;;;;;;5104600;28;20230;-60
2022/07/22 00:37:07;;;;;;;20.03;15.20;;;18.40;99.90;;;;;;5108020;28;20311;-60
2022/07/22 00:39:34;;;;;;;22.30;13.77;;;18.40;99.90;;;;;;5099783;28;20189;-60
2022/07/22 00:42:01;;;;;;;17.33;11.63;;;18.30;99.90;;;;;;5115505;28;20211;-60
2022/07/22 00:44:30;;;;;;;11.37;9.53;;;18.30;99.90;;;;;;5085467;28;20822;-60
2022/07/22 00:46:57;;;;;;;9.87;8.27;;;18.20;99.90;;;;;;5112785;28;20645;-60
2022/07/22 00:49:24;;;;;;;8.63;7.40;;;18.20;99.90;;;;;;5103700;28;20200;-60
2022/07/22 00:51:51;;;;;;;9.27;6.43;;;18.10;99.90;;;;;;5116556;27;20209;-60
2022/07/22 00:54:18;;;;;;;5.57;5.00;;;18.10;99.90;;;;;;5104604;27;20205;-60
2022/07/22 00:56:46;;;;;;;4.10;3.70;;;18.00;99.90;;;;;;5105800;27;20216;-60
2022/07/22 00:59:14;;;;;;;4.10;3.80;;;17.90;99.90;;;;;;5094359;27;20219;-60
2022/07/22 01:01:42;;;;;;;4.33;3.83;;;17.80;99.90;;;;;;5111934;27;20326;-60
2022/07/22 01:04:09;;;;;;;3.23;2.90;;;17.80;99.90;;;;;;5105937;28;20577;-60
2022/07/22 01:06:36;;;;;;;4.40;2.80;;;17.70;99.90;;;;;;5103516;27;20615;-60
2022/07/22 01:09:03;;;;;;;2.30;2.10;;;17.70;99.90;;;;;;5105719;27;20301;-60
2022/07/22 01:11:30;;;;;;;2.53;2.17;;;17.70;99.90;;;;;;5102903;27;20196;-60
2022/07/22 01:13:58;;;;;;;2.03;1.83;;;17.60;99.90;;;;;;5094069;27;20700;-60
2022/07/22 01:16:25;;;;;;;3.10;2.17;;;17.50;99.90;;;;;;5105584;27;20228;-60
2022/07/22 01:18:54;;;;;;;3.00;2.47;;;17.40;99.90;;;;;;5113912;27;20209;-60
2022/07/22 01:21:22;;;;;;;2.33;2.13;;;17.20;99.90;;;;;;5106919;27;20197;-59
2022/07/22 01:23:50;;;;;;;3.17;1.90;;;17.10;99.90;;;;;;5105944;27;20201;-60
2022/07/22 01:26:18;;;;;;;2.83;1.80;;;16.90;99.90;;;;;;5102869;28;20221;-59
2022/07/22 01:28:45;;;;;;;4.00;2.30;;;16.80;99.90;;;;;;5114562;27;20250;-60
2022/07/22 01:31:13;;;;;;;2.60;2.10;;;16.80;99.90;;;;;;5096676;27;20207;-60
2022/07/22 01:33:40;;;;;;;4.10;2.00;;;16.70;99.90;;;;;;5108872;27;20205;-59
2022/07/22 01:36:08;;;;;;;3.47;1.73;;;16.60;99.90;;;;;;5104971;27;20584;-60
2022/07/22 01:38:36;;;;;;;4.30;2.17;;;16.50;99.90;;;;;;5101501;27;20197;-59
2022/07/22 01:41:04;;;;;;;2.57;1.50;;;16.50;99.90;;;;;;5104959;27;20205;-60
2022/07/22 01:43:32;;;;;;;2.63;1.50;;;16.50;99.90;;;;;;5101523;27;20294;-59
2022/07/22 01:45:59;;;;;;;2.40;1.70;;;16.40;99.90;;;;;;5094269;27;20269;-60
2022/07/22 01:48:27;;;;;;;4.60;1.83;;;16.40;99.90;;;;;;5106184;27;20200;-60
2022/07/22 01:50:55;;;;;;;4.40;1.80;;;16.50;99.90;;;;;;5104902;27;20194;-60
2022/07/22 01:53:22;;;;;;;3.83;2.27;;;16.40;99.90;;;;;;5100886;27;20205;-60
2022/07/22 01:55:51;;;;;;;7.97;3.00;;;16.30;99.90;;;;;;5104306;27;20223;-60
2022/07/22 01:58:20;;;;;;;5.57;2.73;;;16.30;99.90;;;;;;5103745;27;20282;-60
2022/07/22 02:00:48;;;;;;;7.13;4.10;;;16.20;99.90;;;;;;5113554;27;20201;-59
2022/07/22 02:03:16;;;;;;;10.63;5.20;;;16.20;99.90;;;;;;5097474;27;20201;-60
2022/07/22 02:05:43;;;;;;;8.57;4.70;;;16.20;99.90;;;;;;5109982;27;20312;-60
2022/07/22 02:08:23;;;;;;;10.53;4.73;;;16.10;99.90;;;;;;5114533;27;20196;-59
2022/07/22 02:11:10;;;;;;;8.43;4.83;;;16.10;99.90;;;;;;5123757;27;20205;-58
2022/07/22 02:13:47;;;;;;;7.97;5.30;;;16.10;99.90;;;;;;5122535;27;20205;-60
2022/07/22 02:16:14;;;;;;;11.67;4.83;;;16.10;99.90;;;;;;5121975;27;20224;-60
2022/07/22 02:18:41;;;;;;;8.97;5.77;;;16.10;99.90;;;;;;5099676;27;20201;-60
2022/07/22 02:21:09;;;;;;;8.10;5.27;;;16.10;99.90;;;;;;5107898;27;20225;-59
2022/07/22 02:23:36;;;;;;;9.40;5.43;;;16.00;99.90;;;;;;5100585;28;20924;-60
2022/07/22 02:26:04;;;;;;;11.87;6.10;;;16.00;99.90;;;;;;5104093;27;20217;-60
2022/07/22 02:28:33;;;;;;;10.13;5.40;;;16.00;99.90;;;;;;5099617;27;20197;-60
2022/07/22 02:30:59;;;;;;;9.23;5.00;;;16.00;99.90;;;;;;5103933;27;20209;-60
2022/07/22 02:33:29;;;;;;;11.97;4.67;;;16.00;99.90;;;;;;5095991;27;20911;-60
2022/07/22 02:35:56;;;;;;;5.47;4.10;;;16.00;99.90;;;;;;5105356;27;20655;-60
2022/07/22 02:38:22;;;;;;;7.03;4.13;;;16.00;99.90;;;;;;5107414;27;20261;-60
2022/07/22 02:40:49;;;;;;;6.50;3.97;;;16.00;99.90;;;;;;5104242;27;20208;-60
2022/07/22 02:43:16;;;;;;;8.37;3.50;;;15.90;99.90;;;;;;5102139;28;20205;-60
2022/07/22 02:45:45;;;;;;;9.07;3.93;;;15.90;99.90;;;;;;5102121;27;20243;-60
2022/07/22 02:48:12;;;;;;;4.57;3.17;;;16.00;99.90;;;;;;5089145;27;20216;-60
2022/07/22 02:50:45;;;;;;;4.77;2.93;;;16.00;99.90;;;;;;5114257;27;20254;-60
2022/07/22 02:53:12;;;;;;;5.83;3.10;;;16.00;99.90;;;;;;5102007;28;20326;-60
2022/07/22 02:55:39;;;;;;;7.13;2.40;;;16.00;99.90;;;;;;5100982;28;21004;-60
2022/07/22 02:58:07;;;;;;;3.50;2.70;;;16.00;99.90;;;;;;5103159;27;20205;-60
2022/07/22 03:00:37;;;;;;;8.80;2.80;;;16.00;99.90;;;;;;5099610;27;20197;-60
2022/07/22 03:03:05;;;;;;;6.90;3.37;;;16.00;99.90;;;;;;5108198;27;20207;-60
2022/07/22 03:05:33;;;;;;;4.67;2.87;;;16.00;99.90;;;;;;5094549;27;20992;-60
2022/07/22 03:08:19;;;;;;;4.73;2.43;;;16.00;99.90;;;;;;5115387;27;20235;-60
2022/07/22 03:10:46;;;;;;;8.53;2.87;;;16.00;99.90;;;;;;5121872;27;20192;-60
2022/07/22 03:13:14;;;;;;;7.40;2.70;;;15.90;99.90;;;;;;5120449;27;20221;-60
2022/07/22 03:15:41;;;;;;;7.27;2.67;;;15.90;99.90;;;;;;5110981;27;20237;-60
2022/07/22 03:18:09;;;;;;;5.43;2.27;;;15.90;99.90;;;;;;5100779;28;20216;-60
2022/07/22 03:20:36;;;;;;;6.20;2.40;;;15.90;99.90;;;;;;5095223;27;20192;-59
2022/07/22 03:23:04;;;;;;;4.93;2.20;;;15.90;99.90;;;;;;5102521;28;20201;-60
2022/07/22 03:25:32;;;;;;;5.87;2.23;;;15.90;99.90;;;;;;5108794;27;20283;-60
2022/07/22 03:27:59;;;;;;;7.57;2.17;;;15.90;99.90;;;;;;5102774;28;20820;-60
2022/07/22 03:30:26;;;;;;;4.17;2.10;;;15.90;99.90;;;;;;5100198;28;20196;-60
2022/07/22 03:32:53;;;;;;;4.40;1.80;;;15.90;99.90;;;;;;5118846;27;20665;-60
2022/07/22 03:35:23;;;;;;;4.77;2.10;;;15.90;99.90;;;;;;5094354;27;20688;-60
2022/07/22 03:37:51;;;;;;;6.90;2.50;;;15.90;99.90;;;;;;5112309;27;20566;-60
2022/07/22 03:40:19;;;;;;;3.70;1.90;;;15.80;99.90;;;;;;5110392;27;20221;-59
2022/07/22 03:42:46;;;;;;;4.73;1.90;;;15.80;99.90;;;;;;5101175;28;20537;-60
2022/07/22 03:45:14;;;;;;;5.67;2.10;;;15.80;99.90;;;;;;5107756;28;20212;-60
2022/07/22 03:47:42;;;;;;;6.13;1.90;;;15.90;99.90;;;;;;5121633;27;20291;-60
2022/07/22 03:50:09;;;;;;;8.23;2.53;;;15.90;99.90;;;;;;5112294;28;20204;-59
2022/07/22 03:52:38;;;;;;;7.23;2.27;;;15.90;99.90;;;;;;5095246;28;20970;-60
2022/07/22 03:55:09;;;;;;;5.80;1.80;;;15.90;99.90;;;;;;5115580;28;20578;-59
2022/07/22 03:57:36;;;;;;;4.93;2.10;;;15.90;99.90;;;;;;5120417;27;20405;-60
2022/07/22 04:00:09;;;;;;;7.93;2.30;;;15.80;99.90;;;;;;5122061;28;20200;-60
2022/07/22 04:02:43;;;;;;;7.27;2.00;;;15.80;99.90;;;;;;5120520;28;20253;-60
2022/07/22 04:05:16;;;;;;;4.77;1.80;;;15.90;99.90;;;;;;5110145;28;20299;-60
2022/07/22 04:07:45;;;;;;;4.07;2.07;;;15.90;99.90;;;;;;5107044;28;20277;-60
2022/07/22 04:10:12;;;;;;;4.13;2.20;;;16.00;99.90;;;;;;5105376;27;20304;-60
2022/07/22 04:12:43;;;;;;;2.40;1.70;;;16.00;99.90;;;;;;5100722;28;20205;-60
2022/07/22 04:15:25;;;;;;;3.37;1.93;;;16.10;99.90;;;;;;5098586;28;20204;-60
2022/07/22 04:17:52;;;;;;;6.83;2.77;;;16.10;99.90;;;;;;5103943;28;20202;-60
2022/07/22 04:20:19;;;;;;;7.07;2.53;;;16.10;99.90;;;;;;5100797;28;20200;-60
2022/07/22 04:23:11;;;;;;;3.93;2.30;;;16.00;99.90;;;;;;5086424;28;20208;-60
2022/07/22 04:25:38;;;;;;;4.07;2.30;;;16.00;99.90;;;;;;5104006;27;20213;-60
2022/07/22 04:28:06;;;;;;;7.13;2.17;;;16.00;99.90;;;;;;5106446;27;20224;-60
2022/07/22 04:30:32;;;;;;;6.40;2.63;;;16.00;99.90;;;;;;5102514;28;20185;-60
2022/07/22 04:33:00;;;;;;;2.67;1.90;;;16.00;99.90;;;;;;5107964;27;20213;-60
2022/07/22 04:35:27;;;;;;;4.97;2.40;;;16.00;99.90;;;;;;5101695;28;20200;-60
2022/07/22 04:38:08;;;;;;;5.50;2.10;;;16.00;99.90;;;;;;5092949;27;20224;-60
2022/07/22 04:40:38;;;;;;;5.47;2.47;;;16.00;99.90;;;;;;5109076;27;20207;-60
2022/07/22 04:43:05;;;;;;;4.77;1.93;;;16.00;99.90;;;;;;5110782;27;20692;-60
2022/07/22 04:45:32;;;;;;;6.23;2.20;;;16.10;99.90;;;;;;5101726;27;20193;-60
2022/07/22 04:47:59;;;;;;;7.50;2.40;;;16.10;99.90;;;;;;5106218;27;21343;-59
2022/07/22 04:50:26;;;;;;;8.33;2.77;;;16.10;99.90;;;;;;5101894;27;20311;-60
2022/07/22 04:52:59;;;;;;;5.57;2.43;;;16.10;99.90;;;;;;5106941;27;20208;-60
2022/07/22 04:55:27;;;;;;;9.57;2.93;;;16.10;99.90;;;;;;5096324;27;20193;-60
2022/07/22 04:57:55;;;;;;;9.97;2.67;;;16.10;99.90;;;;;;5109324;27;20198;-60
2022/07/22 05:00:23;;;;;;;7.33;2.57;;;16.10;99.90;;;;;;5102539;28;20201;-60
2022/07/22 05:02:53;;;;;;;7.00;2.70;;;16.10;99.90;;;;;;5106895;27;20254;-60
2022/07/22 05:05:21;;;;;;;7.40;3.00;;;16.10;99.90;;;;;;5112449;27;20248;-60
2022/07/22 05:07:49;;;;;;;7.23;2.70;;;16.10;99.90;;;;;;5104664;27;20225;-60
2022/07/22 05:10:16;;;;;;;6.73;2.77;;;16.00;99.90;;;;;;5091563;27;20262;-60
2022/07/22 05:12:44;;;;;;;12.70;2.97;;;15.90;99.90;;;;;;5109759;27;20190;-60
2022/07/22 05:15:12;;;;;;;5.53;3.13;;;15.80;99.90;;;;;;5104382;27;20205;-59
2022/07/22 05:17:40;;;;;;;6.23;3.23;;;15.80;99.90;;;;;;5103041;27;20193;-60
2022/07/22 05:20:17;;;;;;;6.70;3.33;;;15.80;99.90;;;;;;5103252;27;20210;-60
2022/07/22 05:22:45;;;;;;;12.63;2.80;;;15.80;99.90;;;;;;5104921;27;20185;-59
2022/07/22 05:25:17;;;;;;;6.67;3.77;;;15.80;99.90;;;;;;5088837;27;20212;-59
2022/07/22 05:27:51;;;;;;;8.33;4.03;;;15.90;99.90;;;;;;5113232;27;20910;-60
2022/07/22 05:30:22;;;;;;;8.43;3.53;;;15.90;99.90;;;;;;5115536;27;20669;-60
2022/07/22 05:32:49;;;;;;;9.57;3.23;;;16.00;99.90;;;;;;5118992;27;20199;-60
2022/07/22 05:35:22;;;;;;;7.57;3.30;;;15.90;99.90;;;;;;5106567;27;20218;-59
2022/07/22 05:37:49;;;;;;;6.90;2.83;;;16.00;99.90;;;;;;5111130;27;20211;-60
2022/07/22 05:40:16;;;;;;;7.47;3.27;;;16.00;99.90;;;;;;5095023;27;20217;-60
2022/07/22 05:42:43;;;;;;;9.57;2.97;;;16.10;99.90;;;;;;5105030;27;20201;-60
2022/07/22 05:45:11;;;;;;;9.83;3.43;;;16.10;99.90;;;;;;5103928;27;20209;-60
2022/07/22 05:47:39;;;;;;;10.57;3.37;;;16.10;99.90;;;;;;5103133;27;20953;-60
2022/07/22 05:50:07;;;;;;;8.23;3.47;;;16.10;99.90;;;;;;5124834;27;20204;-60
2022/07/22 05:52:36;;;;;;;9.20;3.47;;;16.20;99.90;;;;;;5107584;27;20672;-60
2022/07/22 05:55:04;;;;;;;8.50;3.40;;;16.20;99.90;;;;;;5105638;27;20261;-60
2022/07/22 05:57:32;;;;;;;13.13;3.33;;;16.20;99.90;;;;;;5086937;27;20205;-60
2022/07/22 05:59:59;;;;;;;8.57;2.97;;;16.20;99.90;;;;;;5115325;27;20197;-59
2022/07/22 06:02:26;;;;;;;6.90;3.27;;;16.20;99.90;;;;;;5100522;28;20234;-60
2022/07/22 06:04:55;;;;;;;9.47;3.43;;;16.20;99.90;;;;;;5110634;27;20324;-60
2022/07/22 06:07:22;;;;;;;11.47;3.40;;;16.20;99.90;;;;;;5107912;27;20283;-60
2022/07/22 06:09:57;;;;;;;5.90;2.93;;;16.30;99.90;;;;;;5104534;27;20295;-60
2022/07/22 06:12:25;;;;;;;7.13;2.93;;;16.30;99.90;;;;;;5091443;27;20211;-60
2022/07/22 06:14:52;;;;;;;9.30;3.23;;;16.30;99.90;;;;;;5110945;27;20193;-60
2022/07/22 06:17:19;;;;;;;5.27;2.70;;;16.30;99.90;;;;;;5101455;27;20221;-60
2022/07/22 06:19:47;;;;;;;7.33;2.83;;;16.40;99.90;;;;;;5104625;27;20292;-60
2022/07/22 06:22:17;;;;;;;7.80;3.23;;;16.50;99.90;;;;;;5102788;27;20202;-60
2022/07/22 06:24:44;;;;;;;8.07;3.60;;;16.50;99.90;;;;;;5102029;28;20969;-60
2022/07/22 06:27:11;;;;;;;8.13;2.83;;;16.50;99.90;;;;;;5098979;27;20237;-60
2022/07/22 06:29:38;;;;;;;4.97;2.60;;;16.50;99.90;;;;;;5096797;27;21005;-60
2022/07/22 06:32:06;;;;;;;5.87;2.53;;;16.50;99.90;;;;;;5116140;27;20197;-60
2022/07/22 06:34:33;;;;;;;8.47;3.10;;;16.50;99.90;;;;;;5099763;27;20253;-60
2022/07/22 06:37:04;;;;;;;4.53;3.10;;;16.60;99.90;;;;;;5116057;27;20304;-60
2022/07/22 06:39:32;;;;;;;6.97;2.83;;;16.60;99.90;;;;;;5099589;27;20197;-60
2022/07/22 06:42:17;;;;;;;7.27;2.60;;;16.70;99.90;;;;;;5093571;27;20211;-60
2022/07/22 06:45:04;;;;;;;7.67;2.97;;;16.60;99.90;;;;;;5114389;27;20252;-60
2022/07/22 06:47:41;;;;;;;9.77;3.20;;;16.60;99.90;;;;;;5103775;27;20200;-60
2022/07/22 06:50:11;;;;;;;6.13;2.47;;;16.70;99.90;;;;;;5102962;27;20204;-60
2022/07/22 06:52:40;;;;;;;10.97;2.83;;;16.90;99.90;;;;;;5100710;28;20193;-60
2022/07/22 06:55:09;;;;;;;10.67;3.10;;;17.00;99.90;;;;;;5104426;27;20276;-60
2022/07/22 06:57:39;;;;;;;6.80;3.17;;;17.10;99.90;;;;;;5100856;28;20205;-60
2022/07/22 07:00:08;;;;;;;9.10;3.20;;;17.20;99.90;;;;;;5096602;27;20212;-60
2022/07/22 07:02:47;;;;;;;10.13;3.17;;;17.20;99.90;;;;;;5109879;27;20195;-60
2022/07/22 07:05:14;;;;;;;8.57;2.80;;;17.20;99.90;;;;;;5104081;27;20698;-60
2022/07/22 07:07:41;;;;;;;9.53;3.40;;;17.20;99.90;;;;;;5109265;27;20229;-60
2022/07/22 07:10:12;;;;;;;7.17;3.70;;;17.20;99.90;;;;;;5106757;27;20541;-60
2022/07/22 07:12:46;;;;;;;7.43;2.90;;;17.20;99.90;;;;;;5102026;27;20878;-60
2022/07/22 07:15:20;;;;;;;7.37;3.10;;;17.20;99.90;;;;;;5087624;27;20228;-60
2022/07/22 07:17:49;;;;;;;9.67;2.63;;;17.30;99.90;;;;;;5113719;27;20200;-60
2022/07/22 07:20:17;;;;;;;14.30;3.20;;;17.30;99.90;;;;;;5101434;27;20208;-60
2022/07/22 07:22:44;;;;;;;6.87;2.50;;;17.40;99.90;;;;;;5100857;28;20327;-60
2022/07/22 07:25:13;;;;;;;10.30;2.97;;;17.40;99.90;;;;;;5102038;28;20677;-60
2022/07/22 07:27:40;;;;;;;6.60;2.20;;;17.30;99.90;;;;;;5101830;28;20197;-60
2022/07/22 07:30:11;;;;;;;7.83;2.70;;;17.30;99.90;;;;;;5092709;27;20296;-60
2022/07/22 07:32:39;;;;;;;7.43;3.00;;;17.20;99.90;;;;;;5108453;27;20197;-60
2022/07/22 07:35:06;;;;;;;12.83;2.80;;;17.20;99.90;;;;;;5107822;27;20180;-60
2022/07/22 07:37:34;;;;;;;5.83;2.83;;;17.20;99.90;;;;;;5105991;27;20262;-60
2022/07/22 07:40:01;;;;;;;8.40;2.97;;;17.20;99.90;;;;;;5102933;28;20197;-60
2022/07/22 07:42:29;;;;;;;8.87;3.23;;;17.20;99.90;;;;;;5098815;28;20212;-60
2022/07/22 07:44:57;;;;;;;8.93;2.50;;;17.20;99.90;;;;;;5102367;28;20208;-60
2022/07/22 07:47:24;;;;;;;8.50;2.87;;;17.30;99.90;;;;;;5088456;28;20311;-60
2022/07/22 07:49:51;;;;;;;7.73;2.37;;;17.40;99.90;;;;;;5121146;28;20578;-60
2022/07/22 07:52:19;;;;;;;11.23;3.50;;;17.40;99.90;;;;;;5119812;28;20249;-60
2022/07/22 07:54:47;;;;;;;9.13;2.33;;;17.40;99.90;;;;;;5120931;28;20199;-60
2022/07/22 07:57:15;;;;;;;7.23;2.33;;;17.50;99.90;;;;;;5120704;28;20228;-60
2022/07/22 07:59:43;;;;;;;10.07;3.10;;;17.50;99.90;;;;;;5122984;27;20473;-60
2022/07/22 08:02:11;;;;;;;8.80;2.47;;;17.50;99.90;;;;;;5099750;27;20203;-59
2022/07/22 08:04:38;;;;;;;10.30;2.70;;;17.50;99.90;;;;;;5114029;27;20185;-60
2022/07/22 08:07:09;;;;;;;7.83;2.30;;;17.50;99.90;;;;;;5105948;28;20217;-60
2022/07/22 08:09:39;;;;;;;9.13;2.67;;;17.60;99.90;;;;;;5104135;27;20265;-60
2022/07/22 08:12:14;;;;;;;7.90;2.70;;;17.60;99.90;;;;;;5118588;27;20223;-60
2022/07/22 08:14:56;;;;;;;7.30;2.80;;;17.60;99.90;;;;;;5123444;27;20247;-60
2022/07/22 08:17:45;;;;;;;11.27;2.20;;;17.60;99.90;;;;;;5097173;27;20208;-60
2022/07/22 08:20:12;;;;;;;10.07;2.33;;;17.50;99.90;;;;;;5111078;27;20188;-60
2022/07/22 08:22:39;;;;;;;7.60;2.43;;;17.70;99.90;;;;;;5103488;27;20190;-60
2022/07/22 08:25:06;;;;;;;6.43;2.13;;;17.80;99.90;;;;;;5106045;28;20208;-60
2022/07/22 08:27:33;;;;;;;7.57;3.10;;;17.80;99.90;;;;;;5102753;28;20325;-60
2022/07/22 08:30:04;;;;;;;11.47;2.23;;;17.80;99.90;;;;;;5106486;27;20245;-60
2022/07/22 08:32:31;;;;;;;7.63;1.97;;;17.80;99.90;;;;;;5091804;27;20204;-60
2022/07/22 08:34:58;;;;;;;6.70;2.57;;;17.70;99.90;;;;;;5110331;27;20193;-60
2022/07/22 08:37:25;;;;;;;13.17;2.20;;;17.80;99.90;;;;;;5104192;27;20231;-60
2022/07/22 08:39:53;;;;;;;8.10;2.30;;;17.80;99.90;;;;;;5106317;28;20197;-60
2022/07/22 08:42:21;;;;;;;10.13;2.40;;;17.90;99.90;;;;;;5103367;27;20391;-60
2022/07/22 08:44:49;;;;;;;5.77;1.60;;;18.00;99.90;;;;;;5105038;27;20232;-60
2022/07/22 08:47:21;;;;;;;5.93;2.67;;;18.10;99.90;;;;;;5097915;27;20610;-60
2022/07/22 08:50:07;;;;;;;4.27;1.43;;;18.10;99.90;;;;;;5120992;27;20261;-60
2022/07/22 08:52:43;;;;;;;4.50;1.83;;;18.10;99.90;;;;;;5103888;28;20204;-60
2022/07/22 08:55:11;;;;;;;6.17;1.80;;;18.10;99.90;;;;;;5104840;28;20205;-59
2022/07/22 08:57:37;;;;;;;5.80;1.73;;;18.00;99.90;;;;;;5108801;27;20241;-60
2022/07/22 09:00:11;;;;;;;8.60;2.63;;;18.00;99.90;;;;;;5114708;27;20219;-60
2022/07/22 09:02:41;;;;;;;7.00;2.37;;;17.90;99.90;;;;;;5102645;27;20229;-60
2022/07/22 09:05:13;;;;;;;9.43;2.47;;;17.90;99.90;;;;;;5095834;27;20201;-60
2022/07/22 09:07:42;;;;;;;6.60;1.93;;;17.90;99.90;;;;;;5103542;27;20198;-60
2022/07/22 09:10:19;;;;;;;7.13;1.90;;;17.90;99.90;;;;;;5102853;27;20219;-60
2022/07/22 09:13:16;;;;;;;6.00;2.00;;;18.00;99.90;;;;;;5119370;27;20204;-60
2022/07/22 09:15:49;;;;;;;6.60;1.87;;;18.10;99.90;;;;;;5115186;27;20273;-60
2022/07/22 09:18:48;;;;;;;6.43;2.10;;;18.20;99.90;;;;;;5112395;27;20185;-60
2022/07/22 09:21:30;;;;;;;8.57;2.67;;;18.10;99.90;;;;;;5092327;27;20909;-60
2022/07/22 09:24:27;;;;;;;6.63;2.10;;;18.00;99.90;;;;;;5103328;27;20209;-60
2022/07/22 09:26:57;;;;;;;4.97;1.97;;;18.00;99.90;;;;;;5105351;27;20232;-60
2022/07/22 09:29:37;;;;;;;6.43;1.40;;;17.90;99.90;;;;;;5116405;27;20929;-60
2022/07/22 09:32:14;;;;;;;5.90;1.30;;;17.90;99.90;;;;;;5123523;27;20228;-60
2022/07/22 09:35:03;;;;;;;2.23;1.50;;;17.90;99.90;;;;;;5108215;27;20233;-60
2022/07/22 09:37:35;;;;;;;4.47;1.47;;;18.00;99.90;;;;;;5108184;27;20492;-60
2022/07/22 09:40:19;;;;;;;4.07;1.73;;;18.00;99.90;;;;;;5105056;28;20200;-60
2022/07/22 09:42:48;;;;;;;6.93;1.60;;;18.00;99.90;;;;;;5100643;27;20212;-60
2022/07/22 09:45:16;;;;;;;12.10;1.90;;;18.00;99.90;;;;;;5106814;27;20204;-60
2022/07/22 09:47:44;;;;;;;6.70;2.10;;;18.10;99.90;;;;;;5107753;27;20219;-60
2022/07/22 09:50:33;;;;;;;5.50;1.37;;;18.20;99.90;;;;;;5090058;27;20240;-60
2022/07/22 09:53:16;;;;;;;8.17;1.50;;;18.30;99.90;;;;;;5109931;27;20216;-60
2022/07/22 09:55:49;;;;;;;4.47;1.67;;;18.30;99.90;;;;;;5117628;27;20220;-60
2022/07/22 09:58:17;;;;;;;3.33;1.40;;;18.30;99.90;;;;;;5120502;27;20196;-60
2022/07/22 10:00:44;;;;;;;8.30;2.60;;;18.30;99.90;;;;;;5110043;27;20242;-60
2022/07/22 10:03:19;;;;;;;4.57;1.80;;;18.20;99.90;;;;;;5102862;28;20284;-60
2022/07/22 10:05:48;;;;;;;5.57;1.60;;;18.10;99.90;;;;;;5103418;27;20217;-60
2022/07/22 10:08:15;;;;;;;6.57;1.70;;;18.10;99.90;;;;;;5098554;27;20211;-60
2022/07/22 10:10:42;;;;;;;7.00;1.73;;;18.10;99.90;;;;;;5105116;27;20221;-60
2022/07/22 10:13:10;;;;;;;7.10;2.10;;;18.10;99.90;;;;;;5103494;27;20209;-60
2022/07/22 10:15:38;;;;;;;3.03;1.40;;;18.10;99.90;;;;;;5100977;27;20221;-60
2022/07/22 10:18:08;;;;;;;4.03;1.60;;;18.10;99.90;;;;;;5104525;28;20207;-60
2022/07/22 10:20:36;;;;;;;7.77;1.80;;;18.10;99.90;;;;;;5100865;27;20193;-60
2022/07/22 10:23:06;;;;;;;4.93;1.60;;;18.20;99.90;;;;;;5095326;27;20208;-60
2022/07/22 10:25:49;;;;;;;14.43;2.00;;;18.20;99.90;;;;;;5107481;27;20850;-60
2022/07/22 10:28:23;;;;;;;5.43;2.07;;;18.30;99.90;;;;;;5103829;27;20617;-61
2022/07/22 10:30:50;;;;;;;8.50;1.83;;;18.40;99.90;;;;;;5112950;27;20220;-60
2022/07/22 10:33:19;;;;;;;4.70;1.40;;;18.50;99.90;;;;;;5104846;27;20202;-60
2022/07/22 10:35:56;;;;;;;6.03;1.40;;;18.50;99.90;;;;;;5104151;27;20213;-60
2022/07/22 10:38:26;;;;;;;5.33;1.60;;;18.50;99.90;;;;;;5086710;27;20201;-60
2022/07/22 10:40:55;;;;;;;4.83;1.40;;;18.60;99.90;;;;;;5116027;27;20197;-60
2022/07/22 10:43:25;;;;;;;5.17;1.80;;;18.50;99.90;;;;;;5101509;28;20892;-60
2022/07/22 10:45:54;;;;;;;2.93;1.40;;;18.50;99.90;;;;;;5124822;27;20302;-60
2022/07/22 10:48:23;;;;;;;3.47;1.60;;;18.50;99.90;;;;;;5102042;28;20197;-60
2022/07/22 10:51:08;;;;;;;3.07;1.13;;;18.50;99.90;;;;;;5118098;27;20653;-60
2022/07/22 10:53:44;;;;;;;5.47;1.07;;;18.70;99.90;;;;;;5086506;27;20197;-60
2022/07/22 10:56:20;;;;;;;6.73;1.67;;;18.80;99.90;;;;;;5108012;27;20209;-60
2022/07/22 10:58:51;;;;;;;5.95;1.55;;;19.00;99.90;;;;;;5109913;27;20427;-60
2022/07/22 11:01:20;;;;;;;4.23;1.20;;;19.20;99.90;;;;;;5106553;27;20201;-61
2022/07/22 11:03:50;;;;;;;2.77;1.10;;;19.20;99.90;;;;;;5110513;27;20258;-60
2022/07/22 11:06:20;;;;;;;2.77;1.40;;;19.20;99.90;;;;;;5105219;27;20217;-60
2022/07/22 11:08:51;;;;;;;5.40;1.17;;;19.30;99.90;;;;;;5090564;27;20205;-60
2022/07/22 11:11:19;;;;;;;2.97;1.70;;;19.30;99.90;;;;;;5109614;27;20193;-60
2022/07/22 11:13:46;;;;;;;3.73;1.10;;;19.40;99.90;;;;;;5103181;27;20189;-60
2022/07/22 11:16:18;;;;;;;5.13;1.13;;;19.50;99.90;;;;;;5103387;28;20311;-60
2022/07/22 11:18:51;;;;;;;6.63;1.20;;;19.60;99.90;;;;;;5103115;28;20301;-60
2022/07/22 11:21:20;;;;;;;2.47;1.40;;;19.70;99.90;;;;;;5101655;28;20194;-60
2022/07/22 11:23:50;;;;;;;2.67;1.20;;;19.70;99.90;;;;;;5102420;28;20211;-60
2022/07/22 11:26:19;;;;;;;2.13;0.97;;;19.60;99.90;;;;;;5097908;27;20220;-60
2022/07/22 11:28:47;;;;;;;5.73;1.23;;;19.50;99.90;;;;;;5106333;27;20199;-60
2022/07/22 11:31:18;;;;;;;2.80;1.00;;;19.40;99.90;;;;;;5102831;28;20225;-60
2022/07/22 11:33:46;;;;;;;5.17;1.27;;;19.20;99.90;;;;;;5109776;27;20217;-61
2022/07/22 11:36:13;;;;;;;9.70;1.47;;;19.30;99.90;;;;;;5115052;27;20234;-60
2022/07/22 11:38:42;;;;;;;4.67;1.23;;;19.30;99.90;;;;;;5104275;27;20752;-60
2022/07/22 11:41:11;;;;;;;4.33;1.37;;;19.30;99.90;;;;;;5099872;27;20257;-59
2022/07/22 11:43:43;;;;;;;7.47;1.60;;;19.20;99.90;;;;;;5102334;27;20198;-59
2022/07/22 11:46:12;;;;;;;3.83;1.30;;;19.40;99.90;;;;;;5103451;28;20228;-60
2022/07/22 11:48:39;;;;;;;6.43;1.20;;;19.40;99.90;;;;;;5101151;28;20241;-60
2022/07/22 11:51:07;;;;;;;6.37;1.23;;;19.50;99.90;;;;;;5104012;28;20575;-59
2022/07/22 11:53:34;;;;;;;4.47;1.27;;;19.60;99.90;;;;;;5099360;28;20193;-59
2022/07/22 11:56:02;;;;;;;5.13;1.00;;;19.60;99.90;;;;;;5090816;28;20712;-59
2022/07/22 11:58:39;;;;;;;3.67;1.30;;;19.80;99.90;;;;;;5111699;28;20212;-59
2022/07/22 12:01:07;;;;;;;2.77;1.10;;;19.80;99.90;;;;;;5103826;28;20189;-59
2022/07/22 12:03:35;;;;;;;3.70;1.43;;;19.70;99.90;;;;;;5099798;28;20266;-60
2022/07/22 12:06:04;;;;;;;6.77;1.37;;;19.60;99.90;;;;;;5103587;28;20705;-59
2022/07/22 12:08:31;;;;;;;4.73;1.30;;;19.60;99.90;;;;;;5109710;28;20186;-59
2022/07/22 12:10:59;;;;;;;2.83;0.97;;;19.60;99.90;;;;;;5106409;28;20205;-60
2022/07/22 12:13:31;;;;;;;3.53;1.13;;;19.60;99.90;;;;;;5094104;28;20204;-59
2022/07/22 12:15:59;;;;;;;3.83;1.53;;;19.60;99.90;;;;;;5105453;28;20217;-59
2022/07/22 12:18:28;;;;;;;3.93;1.17;;;19.70;99.90;;;;;;5099439;28;20209;-59
2022/07/22 12:20:57;;;;;;;3.43;1.03;;;19.90;99.90;;;;;;5103953;28;20194;-59
2022/07/22 12:23:27;;;;;;;2.13;1.00;;;19.90;99.90;;;;;;5099389;28;20197;-60
2022/07/22 12:25:56;;;;;;;4.43;1.00;;;20.00;99.70;;;;;;5103728;28;20217;-60
2022/07/22 12:28:23;;;;;;;3.43;1.23;;;20.20;99.00;;;;;;5090617;28;20266;-60
2022/07/22 12:30:51;;;;;;;3.53;1.03;;;20.20;99.00;;;;;;5103247;28;20215;-60
2022/07/22 12:33:21;;;;;;;3.00;1.30;;;20.20;98.90;;;;;;5100562;28;20210;-60
2022/07/22 12:36:01;;;;;;;4.10;1.43;;;20.20;98.40;;;;;;5102839;28;20217;-60
2022/07/22 12:38:28;;;;;;;3.37;1.10;;;20.20;97.70;;;;;;5099258;28;20289;-60
2022/07/22 12:40:54;;;;;;;4.97;1.03;;;20.20;97.70;;;;;;5106082;28;20197;-60
2022/07/22 12:43:25;;;;;;;4.80;1.33;;;20.30;97.90;;;;;;5098530;28;20205;-60
2022/07/22 12:45:53;;;;;;;2.13;1.03;;;20.40;97.60;;;;;;5112998;28;20228;-60
2022/07/22 12:48:28;;;;;;;3.07;0.90;;;20.60;97.50;;;;;;5104481;28;20229;-60
2022/07/22 12:50:57;;;;;;;2.60;0.90;;;20.70;97.20;;;;;;5107053;28;20217;-60
2022/07/22 12:53:25;;;;;;;2.20;0.90;;;20.80;96.90;;;;;;5102631;28;20279;-60
2022/07/22 12:55:55;;;;;;;5.17;1.17;;;20.70;96.80;;;;;;5106990;28;20569;-60
2022/07/22 12:58:25;;;;;;;3.33;1.20;;;20.70;97.00;;;;;;5091943;27;20193;-60